^^
Datos históricos de la estación: Murcia-Puente Tocinos
Diario Informe para Mayo 10, 2021 Unidades:  Ambas    Ingés   Métrico
Diario Semanal Mensual Anual
  Máxima: Mínima: Promedio:
Temperatura: 73.8 °F /  23.2 °C 64.9 °F /  18.3 °C 68.9 °F /  20.5 °C
Punto de rocio: 57 °F /  13.9 °C 48 °F /  8.9 °C 51.4 °F /  10.8 °C
Humedad: 75% 44.3% 54%
Velocidad viento: 9.2mph /  14.8km/h - 4.8mph /  7.7km/h
Racha viento: 17.3mph /  27.8km/h - -
Viento- - SO
Presión: 29.8 in /  1010.1 hPa 29.7 in /  1006.9 hPa -
Precipitación: 0 in /  0.0 mm    
 
 
Tabla de datos para Mayo 10, 2021
Hora Temperatura Punto de rocio Presión Viento Velocidad viento Racha viento Humedad Intensidad lluvia(por hora) Nubes
00:04 73.8 °F /  23.2 °C 51.1 °F /  10.6 °C 29.7in /  1006.9hPa Oeste 6.4mph /  10.3km/h 15mph /  24.1km/h 45% 0in /  0.0mm
00:09 73.8 °F /  23.2 °C 51.1 °F /  10.6 °C 29.7in /  1006.9hPa Oeste 8mph /  12.9km/h 17mph /  27.4km/h 45% 0in /  0.0mm
00:14 73.8 °F /  23.2 °C 51.1 °F /  10.6 °C 29.7in /  1006.9hPa Oeste 9.2mph /  14.8km/h 17.3mph /  27.8km/h 45% 0in /  0.0mm
00:19 73.6 °F /  23.1 °C 50.9 °F /  10.5 °C 29.7in /  1006.9hPa ONO 8.9mph /  14.3km/h 9.7mph /  15.6km/h 45% 0in /  0.0mm
00:24 73.6 °F /  23.1 °C 50.9 °F /  10.5 °C 29.7in /  1006.9hPa Oeste 8.7mph /  14km/h 11.5mph /  18.5km/h 45% 0in /  0.0mm
00:29 73.2 °F /  22.9 °C 50.7 °F /  10.4 °C 29.7in /  1007.1hPa Oeste 7.3mph /  11.7km/h 12mph /  19.3km/h 45% 0in /  0.0mm
00:34 73.2 °F /  22.9 °C 50.5 °F /  10.3 °C 29.7in /  1007.1hPa ONO 6.4mph /  10.3km/h 10.4mph /  16.7km/h 45% 0in /  0.0mm
00:39 73 °F /  22.8 °C 50.4 °F /  10.2 °C 29.7in /  1007.1hPa ONO 6.3mph /  10.1km/h 11.2mph /  18km/h 45% 0in /  0.0mm
00:44 72.9 °F /  22.7 °C 50.9 °F /  10.5 °C 29.7in /  1007.1hPa ONO 6.2mph /  10km/h 12mph /  19.3km/h 45.9% 0in /  0.0mm
00:49 72.9 °F /  22.7 °C 50.7 °F /  10.4 °C 29.7in /  1007.1hPa ONO 6mph /  9.7km/h 12mph /  19.3km/h 46% 0in /  0.0mm
00:54 72.7 °F /  22.6 °C 50.7 °F /  10.4 °C 29.7in /  1007.1hPa ONO 5.9mph /  9.5km/h 13.8mph /  22.2km/h 46% 0in /  0.0mm
00:59 72.7 °F /  22.6 °C 50.7 °F /  10.4 °C 29.7in /  1007.1hPa ONO 7.3mph /  11.7km/h 13mph /  20.9km/h 46% 0in /  0.0mm
01:04 72.7 °F /  22.6 °C 50.5 °F /  10.3 °C 29.7in /  1007.1hPa ONO 8.1mph /  13km/h 13mph /  20.9km/h 46% 0in /  0.0mm
01:09 72.3 °F /  22.4 °C 50.5 °F /  10.3 °C 29.7in /  1007.1hPa ONO 7.4mph /  11.9km/h 13mph /  20.9km/h 46% 0in /  0.0mm
01:14 72.3 °F /  22.4 °C 50.4 °F /  10.2 °C 29.8in /  1007.5hPa ONO 6.9mph /  11.1km/h 12.3mph /  19.8km/h 46% 0in /  0.0mm
01:19 72.1 °F /  22.3 °C 50.4 °F /  10.2 °C 29.8in /  1007.5hPa ONO 7.2mph /  11.6km/h 13mph /  20.9km/h 46% 0in /  0.0mm
01:24 72.1 °F /  22.3 °C 50.2 °F /  10.1 °C 29.8in /  1007.5hPa ONO 7.4mph /  11.9km/h 13mph /  20.9km/h 46% 0in /  0.0mm
01:29 72 °F /  22.2 °C 50 °F /  10 °C 29.8in /  1007.7hPa ONO 7.4mph /  11.9km/h 14mph /  22.5km/h 46% 0in /  0.0mm
01:34 72 °F /  22.2 °C 49.6 °F /  9.8 °C 29.8in /  1007.7hPa ONO 7.4mph /  11.9km/h 15mph /  24.1km/h 45.4% 0in /  0.0mm
01:39 71.8 °F /  22.1 °C 49.3 °F /  9.6 °C 29.8in /  1007.7hPa ONO 7.1mph /  11.4km/h 15mph /  24.1km/h 45% 0in /  0.0mm
01:44 71.8 °F /  22.1 °C 49.3 °F /  9.6 °C 29.8in /  1007.8hPa ONO 6.9mph /  11.1km/h 13.7mph /  22km/h 45% 0in /  0.0mm
01:49 71.6 °F /  22 °C 49.1 °F /  9.5 °C 29.8in /  1007.8hPa ONO 6.9mph /  11.1km/h 14mph /  22.5km/h 45% 0in /  0.0mm
01:54 71.4 °F /  21.9 °C 49.1 °F /  9.5 °C 29.8in /  1007.8hPa ONO 6.9mph /  11.1km/h 14mph /  22.5km/h 45% 0in /  0.0mm
01:59 71.4 °F /  21.9 °C 48.9 °F /  9.4 °C 29.8in /  1008.0hPa Oeste 6.5mph /  10.4km/h 13mph /  20.9km/h 45% 0in /  0.0mm
02:04 71.4 °F /  21.9 °C 49.5 °F /  9.7 °C 29.8in /  1008.0hPa OSO 6.2mph /  10km/h 9mph /  14.5km/h 45.8% 0in /  0.0mm
02:09 71.4 °F /  21.9 °C 49.6 °F /  9.8 °C 29.8in /  1008.0hPa SO 4.8mph /  7.8km/h 9mph /  14.5km/h 46% 0in /  0.0mm
02:14 71.2 °F /  21.8 °C 49.5 °F /  9.7 °C 29.8in /  1008.3hPa SO 4mph /  6.5km/h 8.1mph /  13km/h 46% 0in /  0.0mm
02:19 71.2 °F /  21.8 °C 49.5 °F /  9.7 °C 29.8in /  1008.3hPa OSO 4.2mph /  6.7km/h 8.7mph /  14km/h 46% 0in /  0.0mm
02:24 71.2 °F /  21.8 °C 49.5 °F /  9.7 °C 29.8in /  1008.3hPa SO 4.3mph /  6.9km/h 10.4mph /  16.7km/h 46% 0in /  0.0mm
02:29 71.2 °F /  21.8 °C 49.5 °F /  9.7 °C 29.8in /  1008.3hPa OSO 5mph /  8km/h 10mph /  16.1km/h 46.1% 0in /  0.0mm
02:34 71.2 °F /  21.8 °C 49.6 °F /  9.8 °C 29.8in /  1008.2hPa OSO 5.4mph /  8.7km/h 9.2mph /  14.8km/h 46.4% 0in /  0.0mm
02:39 71.2 °F /  21.8 °C 49.5 °F /  9.7 °C 29.8in /  1008.2hPa SO 4.7mph /  7.5km/h 9mph /  14.5km/h 46% 0in /  0.0mm
02:44 71.2 °F /  21.8 °C 49.5 °F /  9.7 °C 29.8in /  1008.2hPa OSO 4mph /  6.5km/h 9mph /  14.5km/h 46% 0in /  0.0mm
02:49 71.2 °F /  21.8 °C 49.5 °F /  9.7 °C 29.8in /  1008.0hPa Oeste 3.5mph /  5.6km/h 5mph /  8km/h 46% 0in /  0.0mm
02:54 71.2 °F /  21.8 °C 49.5 °F /  9.7 °C 29.8in /  1008.0hPa OSO 3.1mph /  5km/h 8.5mph /  13.7km/h 46% 0in /  0.0mm
02:59 71.2 °F /  21.8 °C 49.1 °F /  9.5 °C 29.8in /  1008.2hPa SO 3.7mph /  5.9km/h 9mph /  14.5km/h 45.4% 0in /  0.0mm
03:04 71.4 °F /  21.9 °C 48.9 °F /  9.4 °C 29.8in /  1008.2hPa Oeste 4mph /  6.5km/h 6.4mph /  10.3km/h 45% 0in /  0.0mm
03:09 71.4 °F /  21.9 °C 48.7 °F /  9.3 °C 29.8in /  1008.2hPa Oeste 3.8mph /  6.1km/h 7mph /  11.3km/h 44.6% 0in /  0.0mm
03:14 71.4 °F /  21.9 °C 48.9 °F /  9.4 °C 29.8in /  1008.2hPa SO 3.6mph /  5.8km/h 8.7mph /  14km/h 44.9% 0in /  0.0mm
03:19 71.2 °F /  21.8 °C 48.9 °F /  9.4 °C 29.8in /  1008.0hPa SO 4mph /  6.5km/h 9.2mph /  14.8km/h 45% 0in /  0.0mm
03:24 71.2 °F /  21.8 °C 48.4 °F /  9.1 °C 29.8in /  1008.0hPa OSO 4.3mph /  6.9km/h 5.9mph /  9.5km/h 44.3% 0in /  0.0mm
03:29 71.2 °F /  21.8 °C 48.7 °F /  9.3 °C 29.8in /  1008.0hPa OSO 3.5mph /  5.7km/h 6.2mph /  10km/h 45% 0in /  0.0mm
03:34 71.1 °F /  21.7 °C 48.7 °F /  9.3 °C 29.8in /  1007.7hPa SO 3.1mph /  5km/h 6mph /  9.7km/h 45% 0in /  0.0mm
03:39 71.1 °F /  21.7 °C 48.7 °F /  9.3 °C 29.8in /  1007.7hPa Sur 3.4mph /  5.5km/h 6mph /  9.7km/h 45.3% 0in /  0.0mm
03:44 71.1 °F /  21.7 °C 49.8 °F /  9.9 °C 29.8in /  1008.2hPa SE 3.6mph /  5.8km/h 6mph /  9.7km/h 47.1% 0in /  0.0mm
03:49 71.1 °F /  21.7 °C 50.5 °F /  10.3 °C 29.8in /  1008.2hPa ESE 3.3mph /  5.3km/h 6mph /  9.7km/h 48.3% 0in /  0.0mm
03:54 70.7 °F /  21.5 °C 50.7 °F /  10.4 °C 29.8in /  1008.2hPa ESE 3.1mph /  5km/h 6mph /  9.7km/h 49.4% 0in /  0.0mm
03:59 70.3 °F /  21.3 °C 50.9 °F /  10.5 °C 29.8in /  1008.2hPa SE 3mph /  4.8km/h 5mph /  8km/h 50% 0in /  0.0mm
04:04 70.3 °F /  21.3 °C 50.9 °F /  10.5 °C 29.8in /  1007.8hPa ESE 2.9mph /  4.6km/h 5mph /  8km/h 50.4% 0in /  0.0mm
04:09 70.2 °F /  21.2 °C 51.4 °F /  10.8 °C 29.8in /  1007.8hPa ESE 2.3mph /  3.7km/h 5mph /  8km/h 51.6% 0in /  0.0mm
04:14 70.2 °F /  21.2 °C 51.8 °F /  11 °C 29.8in /  1007.8hPa NNE 1.8mph /  2.9km/h 6.2mph /  10km/h 52.2% 0in /  0.0mm
04:19 69.8 °F /  21 °C 52.2 °F /  11.2 °C 29.8in /  1007.7hPa NNO 1.8mph /  2.9km/h 6mph /  9.7km/h 53.5% 0in /  0.0mm
04:24 69.4 °F /  20.8 °C 51.8 °F /  11 °C 29.8in /  1007.7hPa NNO 1.8mph /  2.9km/h 5.8mph /  9.3km/h 53.2% 0in /  0.0mm
04:29 69.3 °F /  20.7 °C 50.4 °F /  10.2 °C 29.8in /  1008.1hPa ONO 2.5mph /  4.1km/h 7.4mph /  11.9km/h 50.8% 0in /  0.0mm
04:34 69.1 °F /  20.6 °C 48.9 °F /  9.4 °C 29.8in /  1008.1hPa ONO 3.1mph /  5km/h 10.4mph /  16.7km/h 48.8% 0in /  0.0mm
04:39 69.3 °F /  20.7 °C 48.4 °F /  9.1 °C 29.8in /  1008.1hPa ONO 4.8mph /  7.7km/h 11.8mph /  19km/h 47.5% 0in /  0.0mm
04:44 69.3 °F /  20.7 °C 48.6 °F /  9.2 °C 29.8in /  1008.1hPa Oeste 5.9mph /  9.5km/h 12mph /  19.3km/h 47.8% 0in /  0.0mm
04:49 69.1 °F /  20.6 °C 48.6 °F /  9.2 °C 29.8in /  1008.1hPa Oeste 6.5mph /  10.4km/h 11.5mph /  18.5km/h 48% 0in /  0.0mm
04:54 69.1 °F /  20.6 °C 48.9 °F /  9.4 °C 29.8in /  1008.1hPa OSO 6.9mph /  11.1km/h 12mph /  19.3km/h 48.5% 0in /  0.0mm
04:59 68.7 °F /  20.4 °C 49.3 °F /  9.6 °C 29.8in /  1008.3hPa Oeste 6.3mph /  10.1km/h 10.4mph /  16.7km/h 49.7% 0in /  0.0mm
05:04 68.5 °F /  20.3 °C 49.3 °F /  9.6 °C 29.8in /  1008.3hPa Oeste 5.9mph /  9.5km/h 10mph /  16.1km/h 50% 0in /  0.0mm
05:09 68.4 °F /  20.2 °C 49.1 °F /  9.5 °C 29.8in /  1008.3hPa OSO 5.6mph /  9km/h 9.2mph /  14.8km/h 50.1% 0in /  0.0mm
05:14 68.2 °F /  20.1 °C 48.9 °F /  9.4 °C 29.8in /  1008.3hPa OSO 5.4mph /  8.7km/h 9mph /  14.5km/h 50% 0in /  0.0mm
05:19 68.2 °F /  20.1 °C 48.4 °F /  9.1 °C 29.8in /  1008.3hPa OSO 4.7mph /  7.6km/h 9.2mph /  14.8km/h 49% 0in /  0.0mm
05:24 68.2 °F /  20.1 °C 48.4 °F /  9.1 °C 29.8in /  1008.3hPa SO 4.3mph /  6.9km/h 9.2mph /  14.8km/h 49% 0in /  0.0mm
05:29 68.2 °F /  20.1 °C 48.4 °F /  9.1 °C 29.8in /  1008.6hPa SO 5.4mph /  8.7km/h 11.5mph /  18.5km/h 49% 0in /  0.0mm
05:34 68.2 °F /  20.1 °C 48 °F /  8.9 °C 29.8in /  1008.6hPa OSO 6.2mph /  10km/h 12mph /  19.3km/h 48.5% 0in /  0.0mm
05:39 68.4 °F /  20.2 °C 48.4 °F /  9.1 °C 29.8in /  1008.6hPa Oeste 5.3mph /  8.5km/h 9mph /  14.5km/h 48.9% 0in /  0.0mm
05:44 68.2 °F /  20.1 °C 48.4 °F /  9.1 °C 29.8in /  1008.6hPa OSO 4.7mph /  7.6km/h 8.5mph /  13.7km/h 49.2% 0in /  0.0mm
05:49 67.8 °F /  19.9 °C 48.6 °F /  9.2 °C 29.8in /  1008.2hPa OSO 4.7mph /  7.6km/h 9mph /  14.5km/h 50% 0in /  0.0mm
05:54 67.8 °F /  19.9 °C 48.6 °F /  9.2 °C 29.8in /  1008.2hPa Sur 4.7mph /  7.6km/h 8mph /  12.9km/h 50% 0in /  0.0mm
05:59 67.8 °F /  19.9 °C 48.6 °F /  9.2 °C 29.8in /  1008.6hPa SSE 4mph /  6.5km/h 6mph /  9.7km/h 50.2% 0in /  0.0mm
06:04 67.8 °F /  19.9 °C 48.9 °F /  9.4 °C 29.8in /  1008.6hPa SE 3.6mph /  5.8km/h 6mph /  9.7km/h 50.9% 0in /  0.0mm
06:09 67.8 °F /  19.9 °C 49.3 °F /  9.6 °C 29.8in /  1008.6hPa SSE 3.3mph /  5.3km/h 5mph /  8km/h 51.6% 0in /  0.0mm
06:14 67.8 °F /  19.9 °C 49.6 °F /  9.8 °C 29.8in /  1008.6hPa Sur 3.1mph /  5km/h 5.8mph /  9.3km/h 52.3% 0in /  0.0mm
06:19 67.5 °F /  19.7 °C 50 °F /  10 °C 29.8in /  1008.5hPa SO 3.1mph /  5km/h 6.2mph /  10km/h 53.4% 0in /  0.0mm
06:24 67.5 °F /  19.7 °C 50.4 °F /  10.2 °C 29.8in /  1008.5hPa SO 3.1mph /  5km/h 6mph /  9.7km/h 54.3% 0in /  0.0mm
06:29 67.3 °F /  19.6 °C 49.5 °F /  9.7 °C 29.8in /  1008.8hPa SO 2.7mph /  4.3km/h 6mph /  9.7km/h 52.7% 0in /  0.0mm
06:34 67.3 °F /  19.6 °C 49.3 °F /  9.6 °C 29.8in /  1008.8hPa Sur 2.4mph /  3.9km/h 6.9mph /  11.1km/h 52.4% 0in /  0.0mm
06:39 67.3 °F /  19.6 °C 50 °F /  10 °C 29.8in /  1008.8hPa SSE 3.2mph /  5.1km/h 7mph /  11.3km/h 53.7% 0in /  0.0mm
06:44 67.3 °F /  19.6 °C 50.5 °F /  10.3 °C 29.8in /  1008.9hPa SSE 3.6mph /  5.8km/h 7.4mph /  11.9km/h 54.9% 0in /  0.0mm
06:49 67.1 °F /  19.5 °C 51.3 °F /  10.7 °C 29.8in /  1008.9hPa SSE 4.2mph /  6.8km/h 8.1mph /  13km/h 56.8% 0in /  0.0mm
06:54 66.7 °F /  19.3 °C 51.6 °F /  10.9 °C 29.8in /  1008.9hPa Sur 4.7mph /  7.6km/h 8.1mph /  13km/h 58.6% 0in /  0.0mm
06:59 66.4 °F /  19.1 °C 52.2 °F /  11.2 °C 29.8in /  1009.1hPa Sur 4.7mph /  7.6km/h 8mph /  12.9km/h 60.2% 0in /  0.0mm
07:04 66.2 °F /  19 °C 52.9 °F /  11.6 °C 29.8in /  1009.1hPa Sur 4.7mph /  7.6km/h 7.6mph /  12.2km/h 62.4% 0in /  0.0mm
07:09 66 °F /  18.9 °C 53.8 °F /  12.1 °C 29.8in /  1009.1hPa SSE 4.5mph /  7.2km/h 8.1mph /  13km/h 64.6% 0in /  0.0mm
07:14 66 °F /  18.9 °C 54.5 °F /  12.5 °C 29.8in /  1009.1hPa SSE 4.3mph /  6.9km/h 7mph /  11.3km/h 66.3% 0in /  0.0mm
07:19 66 °F /  18.9 °C 54.9 °F /  12.7 °C 29.8in /  1009.1hPa SE 4.3mph /  6.9km/h 7mph /  11.3km/h 67% 0in /  0.0mm
07:24 66.2 °F /  19 °C 55.2 °F /  12.9 °C 29.8in /  1009.1hPa SE 4.3mph /  6.9km/h 6mph /  9.7km/h 67.9% 0in /  0.0mm
07:29 66.2 °F /  19 °C 55.2 °F /  12.9 °C 29.8in /  1009.3hPa SSE 3.5mph /  5.7km/h 6mph /  9.7km/h 68% 0in /  0.0mm
07:34 66 °F /  18.9 °C 55.2 °F /  12.9 °C 29.8in /  1009.3hPa SSE 3.1mph /  5km/h 6mph /  9.7km/h 68.2% 0in /  0.0mm
07:39 66 °F /  18.9 °C 55.6 °F /  13.1 °C 29.8in /  1009.3hPa SSE 3.1mph /  5km/h 6mph /  9.7km/h 69% 0in /  0.0mm
07:44 66.2 °F /  19 °C 55.8 °F /  13.2 °C 29.8in /  1009.6hPa NNO 3.1mph /  5km/h 6.4mph /  10.3km/h 69% 0in /  0.0mm
07:49 65.8 °F /  18.8 °C 55.6 °F /  13.1 °C 29.8in /  1009.6hPa ENE 3mph /  4.8km/h 7mph /  11.3km/h 69% 0in /  0.0mm
07:54 65.8 °F /  18.8 °C 55.6 °F /  13.1 °C 29.8in /  1009.6hPa ESE 2.9mph /  4.7km/h 7mph /  11.3km/h 69.7% 0in /  0.0mm
07:59 65.8 °F /  18.8 °C 55.8 °F /  13.2 °C 29.8in /  1009.7hPa ESE 3mph /  4.9km/h 5mph /  8km/h 70% 0in /  0.0mm
08:04 65.8 °F /  18.8 °C 55.9 °F /  13.3 °C 29.8in /  1009.7hPa Este 3.1mph /  5km/h 5.2mph /  8.4km/h 70.1% 0in /  0.0mm
08:09 65.7 °F /  18.7 °C 56.1 °F /  13.4 °C 29.8in /  1009.7hPa ESE 3mph /  4.8km/h 6.9mph /  11.1km/h 71.3% 0in /  0.0mm
08:14 65.5 °F /  18.6 °C 56.5 °F /  13.6 °C 29.8in /  1009.7hPa ESE 2.9mph /  4.7km/h 7.4mph /  11.9km/h 72.8% 0in /  0.0mm
08:19 65.3 °F /  18.5 °C 56.3 °F /  13.5 °C 29.8in /  1009.4hPa SSE 3.9mph /  6.3km/h 8.1mph /  13km/h 72.6% 0in /  0.0mm
08:24 65.3 °F /  18.5 °C 56.3 °F /  13.5 °C 29.8in /  1009.4hPa Sur 4.7mph /  7.6km/h 8mph /  12.9km/h 72.8% 0in /  0.0mm
08:29 65.3 °F /  18.5 °C 56.5 °F /  13.6 °C 29.8in /  1009.5hPa SSE 4.3mph /  6.9km/h 7.4mph /  11.9km/h 73% 0in /  0.0mm
08:34 65.3 °F /  18.5 °C 56.3 °F /  13.5 °C 29.8in /  1009.5hPa SSE 4mph /  6.5km/h 7mph /  11.3km/h 73% 0in /  0.0mm
08:39 65.1 °F /  18.4 °C 56.1 °F /  13.4 °C 29.8in /  1009.5hPa SSE 4mph /  6.5km/h 7mph /  11.3km/h 73% 0in /  0.0mm
08:44 65.1 °F /  18.4 °C 56.5 °F /  13.6 °C 29.8in /  1009.5hPa Sur 4mph /  6.5km/h 7mph /  11.3km/h 73.7% 0in /  0.0mm
08:49 64.9 °F /  18.3 °C 56.5 °F /  13.6 °C 29.8in /  1009.4hPa Sur 3.8mph /  6.1km/h 5.9mph /  9.5km/h 74% 0in /  0.0mm
08:54 64.9 °F /  18.3 °C 56.7 °F /  13.7 °C 29.8in /  1009.4hPa Sur 3.6mph /  5.8km/h 7.4mph /  11.9km/h 74.4% 0in /  0.0mm
08:59 65.1 °F /  18.4 °C 57 °F /  13.9 °C 29.8in /  1010.1hPa Sur 4.3mph /  6.9km/h 10.4mph /  16.7km/h 75% 0in /  0.0mm
09:04 65.1 °F /  18.4 °C 56.8 °F /  13.8 °C 29.8in /  1010.1hPa SSO 4.7mph /  7.6km/h 10mph /  16.1km/h 74.4% 0in /  0.0mm
09:09 65.3 °F /  18.5 °C 56.5 °F /  13.6 °C 29.8in /  1010.1hPa SSO 5.1mph /  8.2km/h 9mph /  14.5km/h 73.3% 0in /  0.0mm
09:14 65.1 °F /  18.4 °C 55.6 °F /  13.1 °C 29.8in /  1010.1hPa SSO 5.4mph /  8.7km/h 8.1mph /  13km/h 71.1% 0in /  0.0mm
09:19 65.1 °F /  18.4 °C 54.9 °F /  12.7 °C 29.8in /  1009.9hPa SSO 4.5mph /  7.3km/h 8mph /  12.9km/h 69.2% 0in /  0.0mm
09:24 65.3 °F /  18.5 °C 53.6 °F /  12 °C 29.8in /  1009.9hPa SSO 4mph /  6.5km/h 8.1mph /  13km/h 65.8% 0in /  0.0mm
09:29 65.8 °F /  18.8 °C 53.1 °F /  11.7 °C 29.8in /  1009.9hPa Sur 4.7mph /  7.6km/h 9.2mph /  14.8km/h 63.6% 0in /  0.0mm
09:34 66.4 °F /  19.1 °C 52.5 °F /  11.4 °C 29.8in /  1009.9hPa SSO 5.2mph /  8.4km/h 11.5mph /  18.5km/h 61.1% 0in /  0.0mm
09:39 66.4 °F /  19.1 °C 52.5 °F /  11.4 °C 29.8in /  1009.9hPa Sur 6.3mph /  10.2km/h 12mph /  19.3km/h 61% 0in /  0.0mm
09:44 66.4 °F /  19.1 °C 52.5 °F /  11.4 °C 29.8in /  1010.1hPa SSO 6.9mph /  11.1km/h 10mph /  16.1km/h 61% 0in /  0.0mm
09:49 66.6 °F /  19.2 °C 52.7 °F /  11.5 °C 29.8in /  1010.1hPa SSO 5.9mph /  9.5km/h 9.2mph /  14.8km/h 61% 0in /  0.0mm
09:54 67.1 °F /  19.5 °C 52.9 °F /  11.6 °C 29.8in /  1010.1hPa SSO 5.2mph /  8.4km/h 9mph /  14.5km/h 60.2% 0in /  0.0mm
09:59 67.6 °F /  19.8 °C 52.9 °F /  11.6 °C 29.8in /  1010.1hPa SO 5.3mph /  8.6km/h 9.2mph /  14.8km/h 59.2% 0in /  0.0mm
10:04 67.8 °F /  19.9 °C 52.5 °F /  11.4 °C 29.8in /  1010.0hPa OSO 5.4mph /  8.7km/h 9.2mph /  14.8km/h 58% 0in /  0.0mm
10:09 67.8 °F /  19.9 °C 52.7 °F /  11.5 °C 29.8in /  1010.0hPa SO 5.3mph /  8.5km/h 9mph /  14.5km/h 58.4% 0in /  0.0mm
10:14 68.2 °F /  20.1 °C 52.9 °F /  11.6 °C 29.8in /  1010.0hPa SO 5.2mph /  8.4km/h 9.7mph /  15.6km/h 58.2% 0in /  0.0mm
10:19 68.4 °F /  20.2 °C 52.5 °F /  11.4 °C 29.8in /  1009.8hPa SSO 4.9mph /  7.9km/h 10mph /  16.1km/h 57.1% 0in /  0.0mm
10:24 68.2 °F /  20.1 °C 52.7 °F /  11.5 °C 29.8in /  1009.8hPa Sur 4.7mph /  7.6km/h 9mph /  14.5km/h 58% 0in /  0.0mm
10:25 68.2 °F /  20.1 °C 52.9 °F /  11.6 °C 29.8in /  1009.8hPa SSO 5mph /  8km/h 7mph /  11.3km/h 58% 0in /  0.0mm
Murcia-Puente Tocinos, España
Compliments of Weather Underground - 2 mb

La estación de MeteoMurcia.com, publica sus datos en los siguientes proyectos:

Weather Underground PWS IMURCIAP2 Meteoclimatic www.awekas.at

W3Counter
Web Analytics